Bob Shea Ex: Big Bob — WCY5041 — position and weather

sailwx.info

Track history (hours):
 
Tides and Currents Weather Stations Pressure Air Temp Water Temp Dewpoint Dewpoint Depression Visibility Wind Speed Wind Dir Waves Ship Positions

Bob Shea Ex: Big Bob

Owner: BLESSEY ENTERPRISES INC, HARAHAN, LA. More information available from US FCC via Universal Licensing System and Coast Guard Vessel Documentation Center.

Last reported at 2017-Dec-08 14:01 UTC. Time now 2017-Dec-11 19:13 UTC.
Position N 36°57' W 076°20'.

Length 16 m; draft 2.6 m.

Type: Towing. MMSI: 366934030.

Date/timePositionNaut miles runAvg speedWind from/ knotsBaromVisibWave heightAir tempDewpointWater temp
2017-Dec-08 14:01N 36°57' W 076°20'0 7.0
2017-Dec-08 14:00N 36°56' W 076°20'3 7.1
2017-Dec-08 13:30N 36°53' W 076°20'4 7.1
2017-Dec-08 13:00N 36°50' W 076°18'2 3.7
2017-Dec-08 12:30N 36°48' W 076°17'0 0.0
2017-Dec-08 12:00N 36°48' W 076°17'0 0.2
2017-Dec-08 11:30N 36°48' W 076°17'0 0.0
2017-Dec-08 11:00N 36°48' W 076°17'0 0.0
2017-Dec-08 10:30N 36°48' W 076°17'0 0.0
2017-Dec-08 10:00N 36°48' W 076°17'0 0.0
2017-Dec-08 09:30N 36°48' W 076°17'0 0.0
2017-Dec-08 09:00N 36°48' W 076°17'0 0.0
2017-Dec-08 08:30N 36°48' W 076°17'0 0.0
2017-Dec-08 08:00N 36°48' W 076°17'0 0.0
2017-Dec-08 07:30N 36°48' W 076°17'0 0.0
2017-Dec-08 07:00N 36°48' W 076°17'0 0.0
2017-Dec-08 06:30N 36°48' W 076°17'0 0.0
2017-Dec-08 06:00N 36°48' W 076°17'0 0.0
2017-Dec-08 05:30N 36°48' W 076°17'0 0.0
2017-Dec-08 05:00N 36°48' W 076°17'2 3.1
2017-Dec-08 04:30N 36°50' W 076°18'3 6.8
2017-Dec-08 04:00N 36°53' W 076°20'4 7.6
2017-Dec-08 03:27N 36°57' W 076°20'  
2017-Dec-03 15:22N 36°55' W 076°20'3 7.2
2017-Dec-03 15:01N 36°53' W 076°20'3 6.8
2017-Dec-03 14:31N 36°50' W 076°18'1 2.7
2017-Dec-03 14:00N 36°49' W 076°17'3 6.6
2017-Dec-03 13:31N 36°51' W 076°20'1 0.0
2017-Dec-01 20:05N 36°52' W 076°21'0 1.6
2017-Dec-01 20:00N 36°51' W 076°21'3 6.1
2017-Dec-01 19:30N 36°50' W 076°18'2 3.2
2017-Dec-01 19:00N 36°48' W 076°17'0 0.3
2017-Dec-01 18:30N 36°48' W 076°17'0 0.2
2017-Dec-01 18:00N 36°48' W 076°17'0 0.0
2017-Dec-01 17:30N 36°48' W 076°17'0 0.0
2017-Dec-01 17:00N 36°48' W 076°17'0 0.0
2017-Dec-01 16:30N 36°48' W 076°17'0 0.0
2017-Dec-01 16:00N 36°48' W 076°17'0 0.0
2017-Dec-01 15:30N 36°48' W 076°17'0 0.1
2017-Dec-01 15:00N 36°48' W 076°17'0 0.2
2017-Dec-01 14:30N 36°48' W 076°17'0 0.1
2017-Dec-01 14:00N 36°48' W 076°17'0 0.2
2017-Dec-01 13:30N 36°48' W 076°17'0 0.2
2017-Dec-01 13:00N 36°48' W 076°17'0 0.0
2017-Dec-01 12:30N 36°48' W 076°17'0 0.0
2017-Dec-01 12:00N 36°48' W 076°17'0 0.0
2017-Dec-01 11:30N 36°48' W 076°17'0 0.0
2017-Dec-01 11:00N 36°48' W 076°17'0 0.0
2017-Dec-01 10:30N 36°48' W 076°17'0 0.0
2017-Dec-01 10:00N 36°48' W 076°17'0 0.0
2017-Dec-01 09:30N 36°48' W 076°17'0 0.0
2017-Dec-01 09:00N 36°48' W 076°17'0 0.0
2017-Dec-01 08:30N 36°48' W 076°17'0 0.0
2017-Dec-01 08:00N 36°48' W 076°17'1 2.4
2017-Dec-01 07:30N 36°49' W 076°17'3 6.9
2017-Dec-01 07:00N 36°52' W 076°20'7 6.6
2017-Dec-01 05:59N 36°59' W 076°19'2 0.1
2017-Nov-30 01:14N 36°57' W 076°20'2 8.0
2017-Nov-30 00:59N 36°55' W 076°20'4 7.3
2017-Nov-30 00:30N 36°52' W 076°19'4 7.2
2017-Nov-30 00:00N 36°48' W 076°17'0 0.3
2017-Nov-29 23:30N 36°48' W 076°17'0 0.2
2017-Nov-29 23:00N 36°48' W 076°17'0 0.0
2017-Nov-29 20:58N 36°48' W 076°17'0 0.1
2017-Nov-29 20:30N 36°48' W 076°17'1 2.7
2017-Nov-29 20:00N 36°49' W 076°17'3 6.1
2017-Nov-29 19:30N 36°52' W 076°20'4 6.3
2017-Nov-29 18:56N 36°56' W 076°20'45 5.5
2017-Nov-29 10:45N 37°38' W 076°02'1 5.1
2017-Nov-29 10:30N 37°39' W 076°02'3 5.2
2017-Nov-29 09:53N 37°42' W 076°01'2 5.2
2017-Nov-29 09:30N 37°44' W 076°00'3 5.2
2017-Nov-29 09:00N 37°46' W 075°59'3 5.3
2017-Nov-29 08:30N 37°49' W 075°57'35 5.4
2017-Nov-29 02:04N 38°23' W 075°51'12 1.0
2017-Nov-28 14:25N 38°13' W 075°57'  
Track history (hours):
 
Tides and Currents Weather Stations Pressure Air Temp Water Temp Dewpoint Dewpoint Depression Visibility Wind Speed Wind Dir Waves Ship Positions

Bob Shea Ex: Big Bob

Owner: BLESSEY ENTERPRISES INC, HARAHAN, LA. More information available from US FCC via Universal Licensing System and Coast Guard Vessel Documentation Center.

Last reported at 2017-Dec-08 14:01 UTC. Time now 2017-Dec-11 19:13 UTC.
Position N 36°57' W 076°20'.

Length 16 m; draft 2.6 m.

Type: Towing. MMSI: 366934030.

Date/timePositionNaut miles runAvg speedWind from/ knotsBaromVisibWave heightAir tempDewpointWater temp
2017-Dec-08 14:01N 36°57' W 076°20'0 7.0
2017-Dec-08 14:00N 36°56' W 076°20'3 7.1
2017-Dec-08 13:30N 36°53' W 076°20'4 7.1
2017-Dec-08 13:00N 36°50' W 076°18'2 3.7
2017-Dec-08 12:30N 36°48' W 076°17'0 0.0
2017-Dec-08 12:00N 36°48' W 076°17'0 0.2
2017-Dec-08 11:30N 36°48' W 076°17'0 0.0
2017-Dec-08 11:00N 36°48' W 076°17'0 0.0
2017-Dec-08 10:30N 36°48' W 076°17'0 0.0
2017-Dec-08 10:00N 36°48' W 076°17'0 0.0
2017-Dec-08 09:30N 36°48' W 076°17'0 0.0
2017-Dec-08 09:00N 36°48' W 076°17'0 0.0
2017-Dec-08 08:30N 36°48' W 076°17'0 0.0
2017-Dec-08 08:00N 36°48' W 076°17'0 0.0
2017-Dec-08 07:30N 36°48' W 076°17'0 0.0
2017-Dec-08 07:00N 36°48' W 076°17'0 0.0
2017-Dec-08 06:30N 36°48' W 076°17'0 0.0
2017-Dec-08 06:00N 36°48' W 076°17'0 0.0
2017-Dec-08 05:30N 36°48' W 076°17'0 0.0
2017-Dec-08 05:00N 36°48' W 076°17'2 3.1
2017-Dec-08 04:30N 36°50' W 076°18'3 6.8
2017-Dec-08 04:00N 36°53' W 076°20'4 7.6
2017-Dec-08 03:27N 36°57' W 076°20'  
2017-Dec-03 15:22N 36°55' W 076°20'3 7.2
2017-Dec-03 15:01N 36°53' W 076°20'3 6.8
2017-Dec-03 14:31N 36°50' W 076°18'1 2.7
2017-Dec-03 14:00N 36°49' W 076°17'3 6.6
2017-Dec-03 13:31N 36°51' W 076°20'1 0.0
2017-Dec-01 20:05N 36°52' W 076°21'0 1.6
2017-Dec-01 20:00N 36°51' W 076°21'3 6.1
2017-Dec-01 19:30N 36°50' W 076°18'2 3.2
2017-Dec-01 19:00N 36°48' W 076°17'0 0.3
2017-Dec-01 18:30N 36°48' W 076°17'0 0.2
2017-Dec-01 18:00N 36°48' W 076°17'0 0.0
2017-Dec-01 17:30N 36°48' W 076°17'0 0.0
2017-Dec-01 17:00N 36°48' W 076°17'0 0.0
2017-Dec-01 16:30N 36°48' W 076°17'0 0.0
2017-Dec-01 16:00N 36°48' W 076°17'0 0.0
2017-Dec-01 15:30N 36°48' W 076°17'0 0.1
2017-Dec-01 15:00N 36°48' W 076°17'0 0.2
2017-Dec-01 14:30N 36°48' W 076°17'0 0.1
2017-Dec-01 14:00N 36°48' W 076°17'0 0.2
2017-Dec-01 13:30N 36°48' W 076°17'0 0.2
2017-Dec-01 13:00N 36°48' W 076°17'0 0.0
2017-Dec-01 12:30N 36°48' W 076°17'0 0.0
2017-Dec-01 12:00N 36°48' W 076°17'0 0.0
2017-Dec-01 11:30N 36°48' W 076°17'0 0.0
2017-Dec-01 11:00N 36°48' W 076°17'0 0.0
2017-Dec-01 10:30N 36°48' W 076°17'0 0.0
2017-Dec-01 10:00N 36°48' W 076°17'0 0.0
2017-Dec-01 09:30N 36°48' W 076°17'0 0.0
2017-Dec-01 09:00N 36°48' W 076°17'0 0.0
2017-Dec-01 08:30N 36°48' W 076°17'0 0.0
2017-Dec-01 08:00N 36°48' W 076°17'1 2.4
2017-Dec-01 07:30N 36°49' W 076°17'3 6.9
2017-Dec-01 07:00N 36°52' W 076°20'7 6.6
2017-Dec-01 05:59N 36°59' W 076°19'2 0.1
2017-Nov-30 01:14N 36°57' W 076°20'2 8.0
2017-Nov-30 00:59N 36°55' W 076°20'4 7.3
2017-Nov-30 00:30N 36°52' W 076°19'4 7.2
2017-Nov-30 00:00N 36°48' W 076°17'0 0.3
2017-Nov-29 23:30N 36°48' W 076°17'0 0.2
2017-Nov-29 23:00N 36°48' W 076°17'0 0.0
2017-Nov-29 20:58N 36°48' W 076°17'0 0.1
2017-Nov-29 20:30N 36°48' W 076°17'1 2.7
2017-Nov-29 20:00N 36°49' W 076°17'3 6.1
2017-Nov-29 19:30N 36°52' W 076°20'4 6.3
2017-Nov-29 18:56N 36°56' W 076°20'45 5.5
2017-Nov-29 10:45N 37°38' W 076°02'1 5.1
2017-Nov-29 10:30N 37°39' W 076°02'3 5.2
2017-Nov-29 09:53N 37°42' W 076°01'2 5.2
2017-Nov-29 09:30N 37°44' W 076°00'3 5.2
2017-Nov-29 09:00N 37°46' W 075°59'3 5.3
2017-Nov-29 08:30N 37°49' W 075°57'35 5.4
2017-Nov-29 02:04N 38°23' W 075°51'12 1.0
2017-Nov-28 14:25N 38°13' W 075°57'  

Dump ship's entire track history